createdAt,value
2022-09-20T00:01:09.531Z,99925.31
2022-09-20T00:03:37.413Z,99914.50
2022-09-20T00:06:05.757Z,99914.06
2022-09-20T00:08:32.730Z,99918.22
2022-09-20T00:11:08.675Z,99904.72
2022-09-20T00:13:36.750Z,99905.13
2022-09-20T00:16:08.264Z,99901.75
2022-09-20T00:18:35.360Z,99900.44
2022-09-20T00:21:01.986Z,99899.66
2022-09-20T00:23:30.166Z,99901.78
2022-09-20T00:26:02.616Z,99900.13
2022-09-20T00:28:29.898Z,99894.31
2022-09-20T00:30:57.015Z,99906.50
2022-09-20T00:33:25.231Z,99916.28
2022-09-20T00:35:51.734Z,99908.28
2022-09-20T00:38:19.975Z,99912.53
2022-09-20T00:40:46.520Z,99906.44
2022-09-20T00:43:16.020Z,99909.78
2022-09-20T00:45:44.673Z,99915.78
2022-09-20T00:48:11.160Z,99918.91
2022-09-20T00:50:43.890Z,99915.47
2022-09-20T00:53:34.513Z,99917.06
2022-09-20T00:56:08.013Z,99917.84
2022-09-20T00:58:38.598Z,99911.63
2022-09-20T01:01:06.069Z,99905.03
2022-09-20T01:03:34.318Z,99915.78
2022-09-20T01:06:04.584Z,99912.50
2022-09-20T01:08:32.240Z,99917.50
2022-09-20T01:10:58.766Z,99910.34
2022-09-20T01:13:25.331Z,99915.47
2022-09-20T01:15:52.340Z,99907.66
2022-09-20T01:18:20.207Z,99907.59
2022-09-20T01:20:48.216Z,99907.41
2022-09-20T01:23:44.372Z,99910.53
2022-09-20T01:26:29.194Z,99910.47
2022-09-20T01:29:08.420Z,99909.63
2022-09-20T01:31:36.419Z,99911.41
2022-09-20T01:34:06.011Z,99922.81
2022-09-20T01:36:42.965Z,99906.88
2022-09-20T01:39:15.320Z,99909.06
2022-09-20T01:41:47.785Z,99902.34
2022-09-20T01:44:39.243Z,99900.47
2022-09-20T01:47:40.300Z,99899.94
2022-09-20T01:50:18.969Z,99903.59
2022-09-20T01:52:57.914Z,99903.72
2022-09-20T01:55:42.776Z,99903.94
2022-09-20T01:58:33.941Z,99897.69
2022-09-20T02:01:39.707Z,99918.81
2022-09-20T02:04:27.996Z,99916.16
2022-09-20T02:07:19.613Z,99911.22
2022-09-20T02:10:05.027Z,99912.63
2022-09-20T02:12:46.500Z,99917.28
2022-09-20T02:15:15.894Z,99918.84
2022-09-20T02:18:20.254Z,99926.09
2022-09-20T02:20:54.240Z,99933.25
2022-09-20T02:23:45.596Z,99939.00
2022-09-20T02:26:21.167Z,99930.78
2022-09-20T02:28:55.004Z,99915.94
2022-09-20T02:31:30.448Z,99935.28
2022-09-20T02:34:08.675Z,99906.44
2022-09-20T02:37:05.687Z,99917.69
2022-09-20T02:40:06.786Z,99927.13
2022-09-20T02:42:38.491Z,99917.69
2022-09-20T02:45:11.730Z,99923.25
2022-09-20T02:47:39.954Z,99922.28
2022-09-20T02:51:00.790Z,99922.97
2022-09-20T02:53:32.969Z,99930.75
2022-09-20T02:56:39.005Z,99920.16
2022-09-20T02:59:41.196Z,99923.81
2022-09-20T03:02:44.173Z,99931.00
2022-09-20T03:05:27.691Z,99924.47
2022-09-20T03:08:22.076Z,99924.78
2022-09-20T03:11:04.142Z,99930.41
2022-09-20T03:14:01.192Z,99926.41
2022-09-20T03:16:32.034Z,99938.34
2022-09-20T03:19:22.165Z,99930.63
2022-09-20T03:21:52.498Z,99931.97
2022-09-20T03:24:49.585Z,99942.00
2022-09-20T03:27:47.612Z,99935.13
2022-09-20T03:30:31.441Z,99927.72
2022-09-20T03:33:07.328Z,99924.94
2022-09-20T03:35:42.857Z,99927.63
2022-09-20T03:38:28.097Z,99911.25
2022-09-20T03:40:58.764Z,99926.72
2022-09-20T03:43:39.151Z,99916.91
2022-09-20T03:46:08.646Z,99928.53
2022-09-20T03:49:00.549Z,99928.25
2022-09-20T03:51:34.264Z,99935.03
2022-09-20T03:54:23.116Z,99931.31
2022-09-20T03:57:04.433Z,99929.53
2022-09-20T03:59:40.308Z,99931.53
2022-09-20T04:02:37.889Z,99933.06
2022-09-20T04:05:12.443Z,99911.94
2022-09-20T04:07:56.367Z,99916.75
2022-09-20T04:11:00.722Z,99920.41
2022-09-20T04:14:01.553Z,99924.03
2022-09-20T04:16:52.595Z,99922.44
2022-09-20T04:19:29.745Z,99927.38
2022-09-20T04:22:01.096Z,99924.06
2022-09-20T04:24:39.990Z,99932.03
2022-09-20T04:27:18.554Z,99929.94
2022-09-20T04:29:57.583Z,99930.75
2022-09-20T04:32:48.847Z,99934.09
2022-09-20T04:35:40.050Z,99936.56
2022-09-20T04:38:13.105Z,99940.88
2022-09-20T04:40:48.638Z,99933.50
2022-09-20T04:43:56.454Z,99933.50
2022-09-20T04:46:31.960Z,99948.56
2022-09-20T04:49:33.860Z,99943.94
2022-09-20T04:52:20.996Z,99943.75
2022-09-20T04:55:06.372Z,99951.25
2022-09-20T04:57:54.592Z,99948.28
2022-09-20T05:00:22.800Z,99958.22
2022-09-20T05:02:55.306Z,99964.03
2022-09-20T05:05:27.825Z,99965.63
2022-09-20T05:08:03.283Z,99972.22
2022-09-20T05:10:35.883Z,99974.09
2022-09-20T05:13:13.486Z,99968.66
2022-09-20T05:15:46.284Z,99962.88
2022-09-20T05:18:32.997Z,99970.56
2022-09-20T05:21:11.439Z,99972.63
2022-09-20T05:24:03.058Z,99968.38
2022-09-20T05:26:34.687Z,99967.00
2022-09-20T05:29:17.818Z,99956.66
2022-09-20T05:31:53.413Z,99954.81
2022-09-20T05:34:35.139Z,99952.59
2022-09-20T05:37:15.320Z,99957.75
2022-09-20T05:39:46.490Z,99952.03
2022-09-20T05:42:22.865Z,99950.66
2022-09-20T05:45:18.160Z,99968.00
2022-09-20T05:48:12.559Z,99964.66
2022-09-20T05:50:59.516Z,99965.72
2022-09-20T05:54:05.896Z,99971.13
2022-09-20T05:57:10.250Z,99977.66
2022-09-20T06:00:10.577Z,99978.13
2022-09-20T06:02:49.198Z,99989.66
2022-09-20T06:05:18.331Z,99983.75
2022-09-20T06:07:55.837Z,99986.09
2022-09-20T06:10:39.764Z,99989.25
2022-09-20T06:13:12.135Z,99986.69
2022-09-20T06:15:45.849Z,99987.91
2022-09-20T06:18:23.147Z,99986.41
2022-09-20T06:21:11.085Z,99989.84
2022-09-20T06:23:37.607Z,99980.88
2022-09-20T06:26:09.492Z,99972.59
2022-09-20T06:28:41.484Z,99978.31
2022-09-20T06:31:09.127Z,99972.88
2022-09-20T06:34:02.328Z,99967.75
2022-09-20T06:36:55.554Z,99971.88
2022-09-20T06:40:02.685Z,100000.78
2022-09-20T06:42:29.623Z,100005.00
2022-09-20T06:44:56.637Z,100001.25
2022-09-20T06:47:23.361Z,99994.81
2022-09-20T06:49:50.434Z,99995.09
